Airfield :
LOGIN :

Register | Disclaimer

   EN    FR    IT 

 










Legend :    VFR   Marginal VFR   IFR   Intensive IFR   Very Intensive IFR
Visi :
Ceiling :
>= 8 km
>= 3000ft
5 to 8 km
1000 to 3000 ft
1500m to 5 km
500 to 1000 ft
800 to 1500m
200 to 500 ft
< 800m
< 200 ft
Symbols :   Thunderstorms  Fog  Heavy snow  Heavy precipitations  Wind > 20 kt
SIGMETs :     Misc.  Thunderstorms  Icing  Turbulence  Mountain Waves  Volcanic Ashes






- Airport Elevation : 19 ft
- IATA code : BEB


EGPL - Benbecula

CURRENT METAR :
  • 181150Z 26008KT 210V290 9999 FEW028 13/04 Q1020

EXPIRED METARs :
  • 181120Z 27007KT 230V290 9999 FEW028 13/04 Q1020
  • 181050Z 27007KT 230V300 9999 FEW028 13/04 Q1020
  • 180950Z 26006KT 180V320 9999 FEW028 12/04 Q1020
  • 180920Z 26006KT 230V290 9999 FEW028 12/05 Q1020

TAF TAF EGPL
Valid from the 18 at 12:00 until the 18 at 17:00 UTC


181100Z 1812/1817 23006KT 9999 SCT030
ATIS : +44 1870 604 818



MET'MAP, your aeronautical weather chart ! - Copyright ORBIFLY December 2007 - Disclaimer

ORBIFLY MET'MAP TEAM :

Programming & Development : Alexandra Zaïnal
Concept & original design : Baudouin d'Aumeries
Assistance for programming : Marc-Olivier Méhu
Technical & hardware support : Manuel Goepfert

Contact : metmap@orbifly.com




SOURCES & CREDITS :

   NOAA